sensor_id;sensor_type;location;lat;lon;timestamp;P1;durP1;ratioP1;P2;durP2;ratioP2
5742;SDS011;2896;53.500;10.020;2023-10-19T00:02:06;21.30;;;10.50;;
5742;SDS011;2896;53.500;10.020;2023-10-19T00:04:33;18.93;;;10.00;;
5742;SDS011;2896;53.500;10.020;2023-10-19T00:07:00;13.90;;;11.20;;
5742;SDS011;2896;53.500;10.020;2023-10-19T00:09:29;17.73;;;10.50;;
5742;SDS011;2896;53.500;10.020;2023-10-19T00:12:03;16.37;;;10.80;;
5742;SDS011;2896;53.500;10.020;2023-10-19T00:14:33;15.10;;;10.77;;
5742;SDS011;2896;53.500;10.020;2023-10-19T00:17:00;13.20;;;10.40;;
5742;SDS011;2896;53.500;10.020;2023-10-19T00:19:30;16.93;;;11.53;;
5742;SDS011;2896;53.500;10.020;2023-10-19T00:22:03;17.00;;;12.00;;
5742;SDS011;2896;53.500;10.020;2023-10-19T00:24:33;20.07;;;11.33;;
5742;SDS011;2896;53.500;10.020;2023-10-19T00:26:59;14.37;;;10.90;;
5742;SDS011;2896;53.500;10.020;2023-10-19T00:29:32;15.60;;;11.17;;
5742;SDS011;2896;53.500;10.020;2023-10-19T00:32:05;16.17;;;11.50;;
5742;SDS011;2896;53.500;10.020;2023-10-19T00:34:38;14.03;;;10.23;;
5742;SDS011;2896;53.500;10.020;2023-10-19T00:37:06;23.73;;;12.33;;
5742;SDS011;2896;53.500;10.020;2023-10-19T00:39:35;14.70;;;11.30;;
5742;SDS011;2896;53.500;10.020;2023-10-19T00:42:08;16.07;;;12.67;;
5742;SDS011;2896;53.500;10.020;2023-10-19T00:44:36;19.00;;;11.97;;
5742;SDS011;2896;53.500;10.020;2023-10-19T00:47:07;13.87;;;10.97;;
5742;SDS011;2896;53.500;10.020;2023-10-19T00:49:38;16.53;;;12.03;;
5742;SDS011;2896;53.500;10.020;2023-10-19T00:52:04;30.20;;;11.77;;
5742;SDS011;2896;53.500;10.020;2023-10-19T00:54:37;17.07;;;12.57;;
5742;SDS011;2896;53.500;10.020;2023-10-19T00:57:07;15.50;;;11.40;;
5742;SDS011;2896;53.500;10.020;2023-10-19T00:59:36;16.03;;;12.00;;
5742;SDS011;2896;53.500;10.020;2023-10-19T01:02:08;19.53;;;12.30;;
5742;SDS011;2896;53.500;10.020;2023-10-19T01:04:45;14.40;;;11.80;;
5742;SDS011;2896;53.500;10.020;2023-10-19T01:07:20;13.50;;;11.30;;
5742;SDS011;2896;53.500;10.020;2023-10-19T01:09:53;15.33;;;12.20;;
5742;SDS011;2896;53.500;10.020;2023-10-19T01:12:21;17.10;;;13.00;;
5742;SDS011;2896;53.500;10.020;2023-10-19T01:15:03;17.10;;;12.03;;
5742;SDS011;2896;53.500;10.020;2023-10-19T01:17:32;18.20;;;12.33;;
5742;SDS011;2896;53.500;10.020;2023-10-19T01:20:03;17.10;;;12.47;;
5742;SDS011;2896;53.500;10.020;2023-10-19T01:22:46;16.27;;;12.10;;
5742;SDS011;2896;53.500;10.020;2023-10-19T01:25:19;14.50;;;11.80;;
5742;SDS011;2896;53.500;10.020;2023-10-19T01:27:50;15.37;;;11.80;;
5742;SDS011;2896;53.500;10.020;2023-10-19T01:30:22;14.33;;;12.30;;
5742;SDS011;2896;53.500;10.020;2023-10-19T01:32:49;15.37;;;12.00;;
5742;SDS011;2896;53.500;10.020;2023-10-19T01:35:17;18.07;;;12.43;;
5742;SDS011;2896;53.500;10.020;2023-10-19T01:37:43;16.77;;;12.13;;
5742;SDS011;2896;53.500;10.020;2023-10-19T01:40:11;15.23;;;11.97;;
5742;SDS011;2896;53.500;10.020;2023-10-19T01:42:40;22.70;;;12.60;;
5742;SDS011;2896;53.500;10.020;2023-10-19T01:45:07;21.20;;;11.97;;
5742;SDS011;2896;53.500;10.020;2023-10-19T01:47:36;16.53;;;12.57;;
5742;SDS011;2896;53.500;10.020;2023-10-19T01:50:02;20.37;;;12.40;;
5742;SDS011;2896;53.500;10.020;2023-10-19T01:52:31;17.40;;;12.40;;
5742;SDS011;2896;53.500;10.020;2023-10-19T01:54:58;15.87;;;11.57;;
5742;SDS011;2896;53.500;10.020;2023-10-19T01:57:32;17.50;;;12.43;;
5742;SDS011;2896;53.500;10.020;2023-10-19T01:59:59;16.33;;;11.70;;
5742;SDS011;2896;53.500;10.020;2023-10-19T02:02:34;18.30;;;12.50;;
5742;SDS011;2896;53.500;10.020;2023-10-19T02:05:00;16.57;;;11.33;;
5742;SDS011;2896;53.500;10.020;2023-10-19T02:07:30;16.70;;;11.83;;
5742;SDS011;2896;53.500;10.020;2023-10-19T02:09:57;20.10;;;12.90;;
5742;SDS011;2896;53.500;10.020;2023-10-19T02:12:24;19.30;;;12.27;;
5742;SDS011;2896;53.500;10.020;2023-10-19T02:14:50;18.90;;;13.07;;
5742;SDS011;2896;53.500;10.020;2023-10-19T02:17:16;21.33;;;13.43;;
5742;SDS011;2896;53.500;10.020;2023-10-19T02:19:43;18.67;;;12.70;;
5742;SDS011;2896;53.500;10.020;2023-10-19T02:22:09;17.00;;;12.17;;
5742;SDS011;2896;53.500;10.020;2023-10-19T02:24:37;16.50;;;11.57;;
5742;SDS011;2896;53.500;10.020;2023-10-19T02:27:05;15.40;;;12.27;;
5742;SDS011;2896;53.500;10.020;2023-10-19T02:29:31;26.20;;;12.63;;
5742;SDS011;2896;53.500;10.020;2023-10-19T02:31:57;18.60;;;12.40;;
5742;SDS011;2896;53.500;10.020;2023-10-19T02:34:29;16.17;;;12.40;;
5742;SDS011;2896;53.500;10.020;2023-10-19T02:36:55;19.17;;;12.87;;
5742;SDS011;2896;53.500;10.020;2023-10-19T02:39:21;22.43;;;12.13;;
5742;SDS011;2896;53.500;10.020;2023-10-19T02:41:53;24.83;;;12.53;;
5742;SDS011;2896;53.500;10.020;2023-10-19T02:44:20;23.33;;;13.20;;
5742;SDS011;2896;53.500;10.020;2023-10-19T02:46:49;16.70;;;11.70;;
5742;SDS011;2896;53.500;10.020;2023-10-19T02:49:19;16.37;;;11.63;;
5742;SDS011;2896;53.500;10.020;2023-10-19T02:51:48;20.40;;;12.53;;
5742;SDS011;2896;53.500;10.020;2023-10-19T02:54:16;19.40;;;12.40;;
5742;SDS011;2896;53.500;10.020;2023-10-19T02:56:45;17.70;;;12.33;;
5742;SDS011;2896;53.500;10.020;2023-10-19T02:59:14;18.57;;;12.00;;
5742;SDS011;2896;53.500;10.020;2023-10-19T03:01:43;21.13;;;12.37;;
5742;SDS011;2896;53.500;10.020;2023-10-19T03:04:09;21.30;;;13.53;;
5742;SDS011;2896;53.500;10.020;2023-10-19T03:06:37;25.07;;;13.47;;
5742;SDS011;2896;53.500;10.020;2023-10-19T03:09:05;19.40;;;13.30;;
5742;SDS011;2896;53.500;10.020;2023-10-19T03:11:38;24.73;;;13.03;;
5742;SDS011;2896;53.500;10.020;2023-10-19T03:14:05;18.77;;;13.90;;
5742;SDS011;2896;53.500;10.020;2023-10-19T03:16:33;21.37;;;12.53;;
5742;SDS011;2896;53.500;10.020;2023-10-19T03:19:01;19.70;;;13.50;;
5742;SDS011;2896;53.500;10.020;2023-10-19T03:21:29;17.30;;;12.67;;
5742;SDS011;2896;53.500;10.020;2023-10-19T03:23:58;24.83;;;13.80;;
5742;SDS011;2896;53.500;10.020;2023-10-19T03:26:26;22.03;;;13.97;;
5742;SDS011;2896;53.500;10.020;2023-10-19T03:28:55;20.57;;;14.67;;
5742;SDS011;2896;53.500;10.020;2023-10-19T03:31:25;19.43;;;14.00;;
5742;SDS011;2896;53.500;10.020;2023-10-19T03:33:52;19.93;;;14.47;;
5742;SDS011;2896;53.500;10.020;2023-10-19T03:36:25;18.93;;;13.70;;
5742;SDS011;2896;53.500;10.020;2023-10-19T03:38:52;23.30;;;14.60;;
5742;SDS011;2896;53.500;10.020;2023-10-19T03:41:20;23.90;;;14.40;;
5742;SDS011;2896;53.500;10.020;2023-10-19T03:43:51;21.97;;;14.97;;
5742;SDS011;2896;53.500;10.020;2023-10-19T03:46:21;26.30;;;14.47;;
5742;SDS011;2896;53.500;10.020;2023-10-19T03:48:53;27.50;;;15.50;;
5742;SDS011;2896;53.500;10.020;2023-10-19T03:51:23;23.00;;;15.77;;
5742;SDS011;2896;53.500;10.020;2023-10-19T03:53:52;21.17;;;14.80;;
5742;SDS011;2896;53.500;10.020;2023-10-19T03:56:25;23.17;;;15.60;;
5742;SDS011;2896;53.500;10.020;2023-10-19T03:58:54;22.00;;;15.73;;
5742;SDS011;2896;53.500;10.020;2023-10-19T04:01:23;26.90;;;16.00;;
5742;SDS011;2896;53.500;10.020;2023-10-19T04:03:50;30.23;;;16.57;;
5742;SDS011;2896;53.500;10.020;2023-10-19T04:06:21;25.07;;;15.40;;
5742;SDS011;2896;53.500;10.020;2023-10-19T04:08:49;24.60;;;16.73;;
5742;SDS011;2896;53.500;10.020;2023-10-19T04:11:17;30.30;;;17.27;;
5742;SDS011;2896;53.500;10.020;2023-10-19T04:13:48;28.73;;;17.10;;
5742;SDS011;2896;53.500;10.020;2023-10-19T04:16:18;26.97;;;15.57;;
5742;SDS011;2896;53.500;10.020;2023-10-19T04:18:45;23.53;;;15.87;;
5742;SDS011;2896;53.500;10.020;2023-10-19T04:21:13;28.07;;;16.30;;
5742;SDS011;2896;53.500;10.020;2023-10-19T04:23:40;29.53;;;17.07;;
5742;SDS011;2896;53.500;10.020;2023-10-19T04:26:09;28.07;;;17.17;;
5742;SDS011;2896;53.500;10.020;2023-10-19T04:28:39;27.33;;;17.33;;
5742;SDS011;2896;53.500;10.020;2023-10-19T04:31:14;31.23;;;16.40;;
5742;SDS011;2896;53.500;10.020;2023-10-19T04:33:47;31.23;;;17.60;;
5742;SDS011;2896;53.500;10.020;2023-10-19T04:36:14;29.87;;;17.27;;
5742;SDS011;2896;53.500;10.020;2023-10-19T04:38:44;27.73;;;16.67;;
5742;SDS011;2896;53.500;10.020;2023-10-19T04:41:13;30.03;;;17.27;;
5742;SDS011;2896;53.500;10.020;2023-10-19T04:43:40;27.60;;;17.53;;
5742;SDS011;2896;53.500;10.020;2023-10-19T04:46:12;25.57;;;16.90;;
5742;SDS011;2896;53.500;10.020;2023-10-19T04:48:39;24.87;;;17.00;;
5742;SDS011;2896;53.500;10.020;2023-10-19T04:51:07;26.50;;;18.43;;
5742;SDS011;2896;53.500;10.020;2023-10-19T04:53:34;26.73;;;16.93;;
5742;SDS011;2896;53.500;10.020;2023-10-19T04:56:02;31.30;;;19.53;;
5742;SDS011;2896;53.500;10.020;2023-10-19T04:58:31;26.80;;;18.10;;
5742;SDS011;2896;53.500;10.020;2023-10-19T05:00:58;29.00;;;17.40;;
5742;SDS011;2896;53.500;10.020;2023-10-19T05:03:25;24.83;;;16.27;;
5742;SDS011;2896;53.500;10.020;2023-10-19T05:05:53;32.20;;;19.40;;
5742;SDS011;2896;53.500;10.020;2023-10-19T05:08:21;27.93;;;18.30;;
5742;SDS011;2896;53.500;10.020;2023-10-19T05:10:50;27.93;;;17.97;;
5742;SDS011;2896;53.500;10.020;2023-10-19T05:13:17;29.73;;;18.40;;
5742;SDS011;2896;53.500;10.020;2023-10-19T05:15:45;27.03;;;16.00;;
5742;SDS011;2896;53.500;10.020;2023-10-19T05:18:12;27.87;;;17.43;;
5742;SDS011;2896;53.500;10.020;2023-10-19T05:20:38;30.97;;;17.47;;
5742;SDS011;2896;53.500;10.020;2023-10-19T05:23:05;24.57;;;16.77;;
5742;SDS011;2896;53.500;10.020;2023-10-19T05:25:34;32.90;;;18.83;;
5742;SDS011;2896;53.500;10.020;2023-10-19T05:28:02;28.07;;;17.83;;
5742;SDS011;2896;53.500;10.020;2023-10-19T05:30:30;26.27;;;16.40;;
5742;SDS011;2896;53.500;10.020;2023-10-19T05:32:58;30.80;;;17.73;;
5742;SDS011;2896;53.500;10.020;2023-10-19T05:35:26;28.43;;;18.33;;
5742;SDS011;2896;53.500;10.020;2023-10-19T05:37:55;35.87;;;19.73;;
5742;SDS011;2896;53.500;10.020;2023-10-19T05:40:23;31.63;;;17.53;;
5742;SDS011;2896;53.500;10.020;2023-10-19T05:42:54;26.80;;;17.80;;
5742;SDS011;2896;53.500;10.020;2023-10-19T05:45:21;30.10;;;16.50;;
5742;SDS011;2896;53.500;10.020;2023-10-19T05:47:47;34.30;;;20.77;;
5742;SDS011;2896;53.500;10.020;2023-10-19T05:50:15;32.87;;;17.73;;
5742;SDS011;2896;53.500;10.020;2023-10-19T05:52:42;28.63;;;18.47;;
5742;SDS011;2896;53.500;10.020;2023-10-19T05:55:10;27.00;;;18.03;;
5742;SDS011;2896;53.500;10.020;2023-10-19T05:57:37;31.57;;;19.17;;
5742;SDS011;2896;53.500;10.020;2023-10-19T06:00:06;31.67;;;17.67;;
5742;SDS011;2896;53.500;10.020;2023-10-19T06:02:37;30.33;;;16.87;;
5742;SDS011;2896;53.500;10.020;2023-10-19T06:05:05;31.03;;;16.87;;
5742;SDS011;2896;53.500;10.020;2023-10-19T06:07:34;31.73;;;18.10;;
5742;SDS011;2896;53.500;10.020;2023-10-19T06:10:00;29.37;;;18.20;;
5742;SDS011;2896;53.500;10.020;2023-10-19T06:12:30;29.13;;;17.73;;
5742;SDS011;2896;53.500;10.020;2023-10-19T06:14:58;28.23;;;18.53;;
5742;SDS011;2896;53.500;10.020;2023-10-19T06:17:39;29.93;;;17.63;;
5742;SDS011;2896;53.500;10.020;2023-10-19T06:20:07;38.03;;;18.03;;
5742;SDS011;2896;53.500;10.020;2023-10-19T06:22:46;27.97;;;17.80;;
5742;SDS011;2896;53.500;10.020;2023-10-19T06:25:15;26.10;;;18.23;;
5742;SDS011;2896;53.500;10.020;2023-10-19T06:27:43;27.93;;;17.93;;
5742;SDS011;2896;53.500;10.020;2023-10-19T06:30:10;32.73;;;18.10;;
5742;SDS011;2896;53.500;10.020;2023-10-19T06:32:45;30.07;;;17.80;;
5742;SDS011;2896;53.500;10.020;2023-10-19T06:35:13;46.63;;;19.10;;
5742;SDS011;2896;53.500;10.020;2023-10-19T06:37:43;36.33;;;18.97;;
5742;SDS011;2896;53.500;10.020;2023-10-19T06:40:12;33.90;;;18.70;;
5742;SDS011;2896;53.500;10.020;2023-10-19T06:42:40;25.10;;;18.43;;
5742;SDS011;2896;53.500;10.020;2023-10-19T06:45:07;29.80;;;18.50;;
5742;SDS011;2896;53.500;10.020;2023-10-19T06:47:35;32.40;;;18.97;;
5742;SDS011;2896;53.500;10.020;2023-10-19T06:50:03;35.70;;;17.20;;
5742;SDS011;2896;53.500;10.020;2023-10-19T06:52:32;25.87;;;17.00;;
5742;SDS011;2896;53.500;10.020;2023-10-19T06:55:01;39.23;;;19.10;;
5742;SDS011;2896;53.500;10.020;2023-10-19T06:57:29;33.20;;;20.20;;
5742;SDS011;2896;53.500;10.020;2023-10-19T06:59:56;30.07;;;18.90;;
5742;SDS011;2896;53.500;10.020;2023-10-19T07:02:22;27.33;;;17.80;;
5742;SDS011;2896;53.500;10.020;2023-10-19T07:04:55;27.43;;;17.73;;
5742;SDS011;2896;53.500;10.020;2023-10-19T07:07:24;32.43;;;18.60;;
5742;SDS011;2896;53.500;10.020;2023-10-19T07:09:51;29.23;;;16.90;;
5742;SDS011;2896;53.500;10.020;2023-10-19T07:12:20;28.30;;;16.70;;
5742;SDS011;2896;53.500;10.020;2023-10-19T07:14:49;31.00;;;18.50;;
5742;SDS011;2896;53.500;10.020;2023-10-19T07:17:16;34.00;;;17.30;;
5742;SDS011;2896;53.500;10.020;2023-10-19T07:19:43;28.03;;;17.70;;
5742;SDS011;2896;53.500;10.020;2023-10-19T07:22:11;30.60;;;19.17;;
5742;SDS011;2896;53.500;10.020;2023-10-19T07:24:39;27.47;;;17.87;;
5742;SDS011;2896;53.500;10.020;2023-10-19T07:27:06;29.47;;;18.77;;
5742;SDS011;2896;53.500;10.020;2023-10-19T07:29:43;31.87;;;18.07;;
5742;SDS011;2896;53.500;10.020;2023-10-19T07:32:11;33.70;;;19.57;;
5742;SDS011;2896;53.500;10.020;2023-10-19T07:34:39;29.33;;;18.60;;
5742;SDS011;2896;53.500;10.020;2023-10-19T07:37:07;29.67;;;18.80;;
5742;SDS011;2896;53.500;10.020;2023-10-19T07:39:40;27.87;;;17.97;;
5742;SDS011;2896;53.500;10.020;2023-10-19T07:42:07;28.80;;;17.63;;
5742;SDS011;2896;53.500;10.020;2023-10-19T07:44:34;33.07;;;19.07;;
5742;SDS011;2896;53.500;10.020;2023-10-19T07:47:01;32.30;;;18.50;;
5742;SDS011;2896;53.500;10.020;2023-10-19T07:49:29;30.07;;;17.87;;
5742;SDS011;2896;53.500;10.020;2023-10-19T07:51:56;34.60;;;19.37;;
5742;SDS011;2896;53.500;10.020;2023-10-19T07:54:24;28.87;;;18.47;;
5742;SDS011;2896;53.500;10.020;2023-10-19T07:56:52;31.20;;;17.83;;
5742;SDS011;2896;53.500;10.020;2023-10-19T07:59:20;31.30;;;18.67;;
5742;SDS011;2896;53.500;10.020;2023-10-19T08:01:46;30.70;;;19.13;;
5742;SDS011;2896;53.500;10.020;2023-10-19T08:04:13;28.47;;;19.33;;
5742;SDS011;2896;53.500;10.020;2023-10-19T08:06:42;28.70;;;18.13;;
5742;SDS011;2896;53.500;10.020;2023-10-19T08:09:09;27.60;;;19.37;;
5742;SDS011;2896;53.500;10.020;2023-10-19T08:11:36;34.33;;;18.20;;
5742;SDS011;2896;53.500;10.020;2023-10-19T08:14:03;33.47;;;19.87;;
5742;SDS011;2896;53.500;10.020;2023-10-19T08:16:30;30.90;;;19.40;;
5742;SDS011;2896;53.500;10.020;2023-10-19T08:18:57;30.93;;;20.07;;
5742;SDS011;2896;53.500;10.020;2023-10-19T08:21:24;32.97;;;19.17;;
5742;SDS011;2896;53.500;10.020;2023-10-19T08:23:55;28.80;;;18.50;;
5742;SDS011;2896;53.500;10.020;2023-10-19T08:26:21;28.27;;;19.27;;
5742;SDS011;2896;53.500;10.020;2023-10-19T08:28:48;30.73;;;19.50;;
5742;SDS011;2896;53.500;10.020;2023-10-19T08:31:15;31.70;;;19.37;;
5742;SDS011;2896;53.500;10.020;2023-10-19T08:33:41;35.53;;;21.20;;
5742;SDS011;2896;53.500;10.020;2023-10-19T08:36:15;36.60;;;21.73;;
5742;SDS011;2896;53.500;10.020;2023-10-19T08:38:44;32.20;;;20.57;;
5742;SDS011;2896;53.500;10.020;2023-10-19T08:41:12;32.40;;;20.40;;
5742;SDS011;2896;53.500;10.020;2023-10-19T08:43:40;37.43;;;21.47;;
5742;SDS011;2896;53.500;10.020;2023-10-19T08:46:07;34.03;;;21.17;;
5742;SDS011;2896;53.500;10.020;2023-10-19T08:48:34;34.13;;;21.00;;
5742;SDS011;2896;53.500;10.020;2023-10-19T08:51:02;30.10;;;20.70;;
5742;SDS011;2896;53.500;10.020;2023-10-19T08:53:35;37.00;;;20.23;;
5742;SDS011;2896;53.500;10.020;2023-10-19T08:56:05;39.93;;;21.70;;
5742;SDS011;2896;53.500;10.020;2023-10-19T08:58:34;35.40;;;21.20;;
5742;SDS011;2896;53.500;10.020;2023-10-19T09:01:03;31.73;;;21.63;;
5742;SDS011;2896;53.500;10.020;2023-10-19T09:03:35;29.93;;;20.43;;
5742;SDS011;2896;53.500;10.020;2023-10-19T09:06:03;32.57;;;21.50;;
5742;SDS011;2896;53.500;10.020;2023-10-19T09:08:31;29.77;;;19.83;;
5742;SDS011;2896;53.500;10.020;2023-10-19T09:11:05;35.80;;;21.23;;
5742;SDS011;2896;53.500;10.020;2023-10-19T09:13:44;39.43;;;22.67;;
5742;SDS011;2896;53.500;10.020;2023-10-19T09:16:12;30.53;;;20.83;;
5742;SDS011;2896;53.500;10.020;2023-10-19T09:18:40;45.33;;;21.60;;
5742;SDS011;2896;53.500;10.020;2023-10-19T09:21:07;35.50;;;21.70;;
5742;SDS011;2896;53.500;10.020;2023-10-19T09:23:36;31.70;;;20.37;;
5742;SDS011;2896;53.500;10.020;2023-10-19T09:26:04;32.20;;;20.47;;
5742;SDS011;2896;53.500;10.020;2023-10-19T09:28:33;30.73;;;20.87;;
5742;SDS011;2896;53.500;10.020;2023-10-19T09:31:03;33.73;;;20.87;;
5742;SDS011;2896;53.500;10.020;2023-10-19T09:33:31;41.40;;;21.73;;
5742;SDS011;2896;53.500;10.020;2023-10-19T09:36:00;34.83;;;22.57;;
5742;SDS011;2896;53.500;10.020;2023-10-19T09:38:27;32.73;;;20.53;;
5742;SDS011;2896;53.500;10.020;2023-10-19T09:40:54;41.03;;;23.30;;
5742;SDS011;2896;53.500;10.020;2023-10-19T09:43:29;31.10;;;21.70;;
5742;SDS011;2896;53.500;10.020;2023-10-19T09:46:01;33.30;;;20.77;;
5742;SDS011;2896;53.500;10.020;2023-10-19T09:48:32;39.13;;;21.57;;
5742;SDS011;2896;53.500;10.020;2023-10-19T09:51:06;40.27;;;22.30;;
5742;SDS011;2896;53.500;10.020;2023-10-19T09:53:34;33.50;;;21.60;;
5742;SDS011;2896;53.500;10.020;2023-10-19T09:56:03;34.53;;;21.97;;
5742;SDS011;2896;53.500;10.020;2023-10-19T09:58:33;38.03;;;22.40;;
5742;SDS011;2896;53.500;10.020;2023-10-19T10:01:04;31.23;;;21.90;;
5742;SDS011;2896;53.500;10.020;2023-10-19T10:03:47;33.47;;;22.03;;
5742;SDS011;2896;53.500;10.020;2023-10-19T10:06:16;34.80;;;20.80;;
5742;SDS011;2896;53.500;10.020;2023-10-19T10:08:52;38.80;;;22.97;;
5742;SDS011;2896;53.500;10.020;2023-10-19T10:11:20;31.53;;;21.90;;
5742;SDS011;2896;53.500;10.020;2023-10-19T10:13:49;32.87;;;22.90;;
5742;SDS011;2896;53.500;10.020;2023-10-19T10:16:18;41.63;;;23.63;;
5742;SDS011;2896;53.500;10.020;2023-10-19T10:18:48;33.20;;;22.90;;
5742;SDS011;2896;53.500;10.020;2023-10-19T10:21:16;37.23;;;23.20;;
5742;SDS011;2896;53.500;10.020;2023-10-19T10:23:46;34.87;;;22.70;;
5742;SDS011;2896;53.500;10.020;2023-10-19T10:26:14;42.17;;;22.97;;
5742;SDS011;2896;53.500;10.020;2023-10-19T10:28:45;40.03;;;21.83;;
5742;SDS011;2896;53.500;10.020;2023-10-19T10:31:13;38.50;;;22.80;;
5742;SDS011;2896;53.500;10.020;2023-10-19T10:33:42;31.77;;;21.47;;
5742;SDS011;2896;53.500;10.020;2023-10-19T10:36:11;29.63;;;21.03;;
5742;SDS011;2896;53.500;10.020;2023-10-19T10:38:38;32.97;;;22.50;;
5742;SDS011;2896;53.500;10.020;2023-10-19T10:41:05;32.57;;;21.07;;
5742;SDS011;2896;53.500;10.020;2023-10-19T10:43:47;29.80;;;21.67;;
5742;SDS011;2896;53.500;10.020;2023-10-19T10:46:15;31.07;;;22.07;;
5742;SDS011;2896;53.500;10.020;2023-10-19T10:48:43;36.40;;;24.10;;
5742;SDS011;2896;53.500;10.020;2023-10-19T10:53:55;34.27;;;21.97;;
5742;SDS011;2896;53.500;10.020;2023-10-19T10:56:23;36.00;;;23.70;;
5742;SDS011;2896;53.500;10.020;2023-10-19T10:58:50;36.27;;;23.50;;
5742;SDS011;2896;53.500;10.020;2023-10-19T11:01:27;36.43;;;22.67;;
5742;SDS011;2896;53.500;10.020;2023-10-19T11:04:06;31.97;;;22.07;;
5742;SDS011;2896;53.500;10.020;2023-10-19T11:06:33;34.03;;;21.47;;
5742;SDS011;2896;53.500;10.020;2023-10-19T11:09:11;30.53;;;20.93;;
5742;SDS011;2896;53.500;10.020;2023-10-19T11:11:43;32.33;;;22.13;;
5742;SDS011;2896;53.500;10.020;2023-10-19T11:14:10;34.07;;;22.77;;
5742;SDS011;2896;53.500;10.020;2023-10-19T11:16:37;34.27;;;21.67;;
5742;SDS011;2896;53.500;10.020;2023-10-19T11:19:09;32.40;;;22.10;;
5742;SDS011;2896;53.500;10.020;2023-10-19T11:21:38;33.67;;;21.40;;
5742;SDS011;2896;53.500;10.020;2023-10-19T11:24:24;35.70;;;23.37;;
5742;SDS011;2896;53.500;10.020;2023-10-19T11:26:51;35.67;;;22.93;;
5742;SDS011;2896;53.500;10.020;2023-10-19T11:29:17;38.73;;;23.33;;
5742;SDS011;2896;53.500;10.020;2023-10-19T11:31:56;33.57;;;22.87;;
5742;SDS011;2896;53.500;10.020;2023-10-19T11:34:24;32.07;;;22.73;;
5742;SDS011;2896;53.500;10.020;2023-10-19T11:36:52;31.77;;;22.43;;
5742;SDS011;2896;53.500;10.020;2023-10-19T11:39:21;33.07;;;22.83;;
5742;SDS011;2896;53.500;10.020;2023-10-19T11:41:48;34.43;;;21.90;;
5742;SDS011;2896;53.500;10.020;2023-10-19T11:44:15;37.90;;;23.30;;
5742;SDS011;2896;53.500;10.020;2023-10-19T11:46:41;31.43;;;22.13;;
5742;SDS011;2896;53.500;10.020;2023-10-19T11:49:08;37.77;;;22.13;;
5742;SDS011;2896;53.500;10.020;2023-10-19T11:51:36;37.10;;;23.60;;
5742;SDS011;2896;53.500;10.020;2023-10-19T11:54:04;42.63;;;23.90;;
5742;SDS011;2896;53.500;10.020;2023-10-19T11:56:31;34.70;;;24.03;;
5742;SDS011;2896;53.500;10.020;2023-10-19T11:58:59;34.63;;;23.87;;
5742;SDS011;2896;53.500;10.020;2023-10-19T12:01:27;35.70;;;23.80;;
5742;SDS011;2896;53.500;10.020;2023-10-19T12:03:57;34.73;;;23.90;;
5742;SDS011;2896;53.500;10.020;2023-10-19T12:06:25;35.10;;;22.27;;
5742;SDS011;2896;53.500;10.020;2023-10-19T12:08:53;34.80;;;22.97;;
5742;SDS011;2896;53.500;10.020;2023-10-19T12:11:22;34.87;;;22.97;;
5742;SDS011;2896;53.500;10.020;2023-10-19T12:13:49;38.83;;;24.60;;
5742;SDS011;2896;53.500;10.020;2023-10-19T12:16:16;40.20;;;25.70;;
5742;SDS011;2896;53.500;10.020;2023-10-19T12:18:49;33.90;;;22.80;;
5742;SDS011;2896;53.500;10.020;2023-10-19T12:21:16;38.70;;;25.60;;
5742;SDS011;2896;53.500;10.020;2023-10-19T12:23:43;31.80;;;22.70;;
5742;SDS011;2896;53.500;10.020;2023-10-19T12:26:17;33.97;;;23.43;;
5742;SDS011;2896;53.500;10.020;2023-10-19T12:28:44;32.10;;;22.00;;
5742;SDS011;2896;53.500;10.020;2023-10-19T12:31:14;29.07;;;21.93;;
5742;SDS011;2896;53.500;10.020;2023-10-19T12:33:43;35.70;;;23.63;;
5742;SDS011;2896;53.500;10.020;2023-10-19T12:36:10;35.43;;;22.80;;
5742;SDS011;2896;53.500;10.020;2023-10-19T12:38:56;35.33;;;23.63;;
5742;SDS011;2896;53.500;10.020;2023-10-19T12:41:24;38.37;;;24.53;;
5742;SDS011;2896;53.500;10.020;2023-10-19T12:43:52;33.93;;;22.50;;
5742;SDS011;2896;53.500;10.020;2023-10-19T12:46:22;39.03;;;24.23;;
5742;SDS011;2896;53.500;10.020;2023-10-19T12:48:50;36.60;;;23.87;;
5742;SDS011;2896;53.500;10.020;2023-10-19T12:51:16;38.80;;;24.17;;
5742;SDS011;2896;53.500;10.020;2023-10-19T12:53:48;39.33;;;23.87;;
5742;SDS011;2896;53.500;10.020;2023-10-19T12:56:16;38.23;;;23.27;;
5742;SDS011;2896;53.500;10.020;2023-10-19T12:58:45;34.77;;;23.33;;
5742;SDS011;2896;53.500;10.020;2023-10-19T13:01:13;37.17;;;23.47;;
5742;SDS011;2896;53.500;10.020;2023-10-19T13:03:42;34.90;;;23.57;;
5742;SDS011;2896;53.500;10.020;2023-10-19T13:06:10;36.73;;;23.50;;
5742;SDS011;2896;53.500;10.020;2023-10-19T13:08:37;36.30;;;23.50;;
5742;SDS011;2896;53.500;10.020;2023-10-19T13:11:05;37.17;;;22.17;;
5742;SDS011;2896;53.500;10.020;2023-10-19T13:13:32;38.20;;;24.73;;
5742;SDS011;2896;53.500;10.020;2023-10-19T13:16:02;39.03;;;23.03;;
5742;SDS011;2896;53.500;10.020;2023-10-19T13:18:31;36.70;;;23.40;;
5742;SDS011;2896;53.500;10.020;2023-10-19T13:20:59;46.17;;;24.83;;
5742;SDS011;2896;53.500;10.020;2023-10-19T13:23:29;34.00;;;22.93;;
5742;SDS011;2896;53.500;10.020;2023-10-19T13:25:58;39.97;;;25.07;;
5742;SDS011;2896;53.500;10.020;2023-10-19T13:28:33;35.60;;;23.77;;
5742;SDS011;2896;53.500;10.020;2023-10-19T13:31:04;38.10;;;24.30;;
5742;SDS011;2896;53.500;10.020;2023-10-19T13:33:34;41.60;;;25.53;;
5742;SDS011;2896;53.500;10.020;2023-10-19T13:36:01;43.40;;;23.97;;
5742;SDS011;2896;53.500;10.020;2023-10-19T13:38:30;39.53;;;22.87;;
5742;SDS011;2896;53.500;10.020;2023-10-19T13:40:57;36.40;;;23.87;;
5742;SDS011;2896;53.500;10.020;2023-10-19T13:43:24;34.17;;;23.23;;
5742;SDS011;2896;53.500;10.020;2023-10-19T13:45:51;38.23;;;23.50;;
5742;SDS011;2896;53.500;10.020;2023-10-19T13:48:20;35.40;;;22.40;;
5742;SDS011;2896;53.500;10.020;2023-10-19T13:50:47;32.27;;;21.57;;
5742;SDS011;2896;53.500;10.020;2023-10-19T13:53:14;37.33;;;22.47;;
5742;SDS011;2896;53.500;10.020;2023-10-19T13:55:42;32.03;;;21.33;;
5742;SDS011;2896;53.500;10.020;2023-10-19T13:58:09;37.93;;;23.43;;
5742;SDS011;2896;53.500;10.020;2023-10-19T14:00:36;34.83;;;22.47;;
5742;SDS011;2896;53.500;10.020;2023-10-19T14:03:08;33.13;;;21.77;;
5742;SDS011;2896;53.500;10.020;2023-10-19T14:05:37;32.63;;;22.27;;
5742;SDS011;2896;53.500;10.020;2023-10-19T14:08:05;36.20;;;20.40;;
5742;SDS011;2896;53.500;10.020;2023-10-19T14:10:32;41.67;;;21.63;;
5742;SDS011;2896;53.500;10.020;2023-10-19T14:13:04;35.93;;;22.03;;
5742;SDS011;2896;53.500;10.020;2023-10-19T14:15:31;35.43;;;21.13;;
5742;SDS011;2896;53.500;10.020;2023-10-19T14:17:59;36.93;;;22.90;;
5742;SDS011;2896;53.500;10.020;2023-10-19T14:20:28;37.83;;;24.40;;
5742;SDS011;2896;53.500;10.020;2023-10-19T14:22:57;31.97;;;21.57;;
5742;SDS011;2896;53.500;10.020;2023-10-19T14:25:24;34.13;;;22.23;;
5742;SDS011;2896;53.500;10.020;2023-10-19T14:27:52;34.37;;;20.77;;
5742;SDS011;2896;53.500;10.020;2023-10-19T14:30:24;32.67;;;20.90;;
5742;SDS011;2896;53.500;10.020;2023-10-19T14:32:53;32.10;;;22.00;;
5742;SDS011;2896;53.500;10.020;2023-10-19T14:35:20;29.90;;;20.20;;
5742;SDS011;2896;53.500;10.020;2023-10-19T14:37:48;30.40;;;21.10;;
5742;SDS011;2896;53.500;10.020;2023-10-19T14:40:17;32.27;;;20.93;;
5742;SDS011;2896;53.500;10.020;2023-10-19T14:42:45;29.33;;;21.97;;
5742;SDS011;2896;53.500;10.020;2023-10-19T14:45:13;31.83;;;20.80;;
5742;SDS011;2896;53.500;10.020;2023-10-19T14:47:46;28.67;;;21.63;;